Time;durP1;ratioP1;P1;durP2;ratioP2;P2;SDS_P1;SDS_P2;PMS_P1;PMS_P2;Temp;Humidity;BMP_temperature;BMP_pressure;BME280_temperature;BME280_humidity;BME280_pressure;Samples;Min_cycle;Max_cycle;Signal;HPM_P1;HPM_P2
2021/01/06 00:09:56;;;;;;;0.20;0.17;;;-1.90;99.90;;;;;;20742649;28;20386;-65
2021/01/06 00:19:58;;;;;;;0.77;0.15;;;-1.90;99.90;;;;;;20741616;28;20120;-65
2021/01/06 00:30:00;;;;;;;0.17;0.08;;;-1.90;99.90;;;;;;20741358;28;20050;-65
2021/01/06 00:40:02;;;;;;;0.17;0.00;;;-2.20;99.90;;;;;;20740601;28;20037;-65
2021/01/06 00:50:05;;;;;;;0.10;0.00;;;-2.70;99.90;;;;;;20782055;28;20073;-65
2021/01/06 01:00:12;;;;;;;0.63;0.10;;;-3.10;99.90;;;;;;20806299;28;20096;-65
2021/01/06 01:10:32;;;;;;;0.20;0.10;;;-3.20;99.90;;;;;;20738523;28;20480;-65
2021/01/06 01:20:34;;;;;;;0.25;0.10;;;-3.10;99.90;;;;;;20753618;28;20503;-65
2021/01/06 01:30:35;;;;;;;0.00;0.00;;;-3.20;99.90;;;;;;20738028;28;20046;-65
2021/01/06 01:40:39;;;;;;;0.00;0.00;;;-3.20;99.90;;;;;;20752257;28;20042;-65
2021/01/06 01:50:41;;;;;;;0.32;0.10;;;-3.10;99.90;;;;;;20752811;28;20034;-65
2021/01/06 02:00:43;;;;;;;0.30;0.08;;;-2.90;99.90;;;;;;20741473;28;20054;-65
2021/01/06 02:11:00;;;;;;;0.13;0.10;;;-2.60;99.90;;;;;;20669934;28;20563;-65
2021/01/06 02:21:31;;;;;;;0.28;0.10;;;-2.50;99.90;;;;;;20667961;28;20132;-65
2021/01/06 02:31:33;;;;;;;;;;;-2.40;99.90;;;;;;20668955;28;20104;-64
2021/01/06 02:41:37;;;;;;;0.40;0.10;;;-2.30;99.90;;;;;;20651280;28;19918;-65
2021/01/06 02:51:45;;;;;;;0.30;0.20;;;-2.30;99.90;;;;;;20707292;28;20111;-64
2021/01/06 03:01:49;;;;;;;0.32;0.20;;;-2.20;99.90;;;;;;20746354;28;20434;-64
2021/01/06 03:11:50;;;;;;;0.38;0.20;;;-2.20;99.90;;;;;;20745571;28;20077;-65
2021/01/06 03:21:55;;;;;;;0.57;0.10;;;-2.20;99.90;;;;;;20745723;28;20484;-64
2021/01/06 03:32:03;;;;;;;0.32;0.10;;;-2.10;99.90;;;;;;20745728;28;20088;-65
2021/01/06 03:42:06;;;;;;;0.10;0.10;;;-2.10;99.90;;;;;;20743264;28;20046;-65
2021/01/06 03:52:31;;;;;;;0.32;0.10;;;-2.10;99.90;;;;;;20700353;28;20350;-64
2021/01/06 04:02:42;;;;;;;0.20;0.10;;;-2.00;99.90;;;;;;20662693;28;20054;-64
2021/01/06 04:12:44;;;;;;;0.00;0.00;;;-1.90;99.90;;;;;;20662258;28;20393;-65
2021/01/06 04:22:52;;;;;;;0.10;0.10;;;-1.80;99.90;;;;;;20696087;28;20092;-64
2021/01/06 04:32:54;;;;;;;0.82;0.70;;;-1.80;99.90;;;;;;20686542;28;20365;-64
2021/01/06 04:43:04;;;;;;;1.35;0.90;;;-1.80;99.90;;;;;;20687596;28;20042;-64
2021/01/06 04:53:24;;;;;;;2.47;0.68;;;-1.70;99.90;;;;;;20738318;28;20042;-64
2021/01/06 05:03:54;;;;;;;1.43;1.10;;;-1.70;99.90;;;;;;20711238;28;20058;-64
2021/01/06 05:14:12;;;;;;;2.30;1.17;;;-1.70;99.90;;;;;;20685066;28;20065;-64
2021/01/06 05:24:24;;;;;;;1.40;0.90;;;-1.70;99.90;;;;;;20686242;28;20050;-64
2021/01/06 05:34:28;;;;;;;2.53;1.73;;;-1.60;99.90;;;;;;20676301;28;20041;-64
2021/01/06 05:44:32;;;;;;;2.85;1.75;;;-1.60;99.90;;;;;;20672196;28;20448;-66
2021/01/06 05:54:47;;;;;;;17.30;2.67;;;-1.60;99.90;;;;;;20671978;28;20088;-64
2021/01/06 06:05:07;;;;;;;186.98;7.68;;;-1.60;99.90;;;;;;20671172;28;20054;-64
2021/01/06 06:15:30;;;;;;;584.70;23.23;;;-1.70;99.90;;;;;;20670578;28;20109;-64
2021/01/06 06:25:39;;;;;;;155.00;8.27;;;-1.70;99.90;;;;;;20668662;28;20038;-64
2021/01/06 06:35:48;;;;;;;625.92;23.27;;;-1.70;99.90;;;;;;20668328;28;20096;-64
2021/01/06 06:46:01;;;;;;;424.42;16.60;;;-1.70;99.90;;;;;;20649665;28;20034;-64
2021/01/06 06:56:15;;;;;;;202.63;9.52;;;-1.70;99.90;;;;;;20732376;28;20042;-65
2021/01/06 07:06:18;;;;;;;2.67;1.77;;;-1.60;99.90;;;;;;20699909;28;20116;-64
2021/01/06 07:16:30;;;;;;;3.17;1.83;;;-1.60;99.90;;;;;;20688246;28;20037;-64
2021/01/06 07:26:42;;;;;;;3.85;2.53;;;-1.50;99.90;;;;;;20728153;28;20115;-64
2021/01/06 07:36:53;;;;;;;6.78;3.67;;;-1.50;99.90;;;;;;20745694;28;20045;-64
2021/01/06 07:47:01;;;;;;;4.37;3.00;;;-1.40;99.90;;;;;;20741582;28;20054;-64
2021/01/06 07:57:12;;;;;;;5.53;3.80;;;-1.30;99.90;;;;;;20662385;28;20540;-64
2021/01/06 08:07:21;;;;;;;4.15;2.70;;;-1.10;99.90;;;;;;20660711;28;20563;-64
2021/01/06 08:17:44;;;;;;;2.13;1.60;;;-0.70;99.90;;;;;;20662130;28;20046;-65
2021/01/06 08:27:46;;;;;;;1.17;0.80;;;-0.70;99.90;;;;;;20660481;28;20374;-64
2021/01/06 08:37:51;;;;;;;1.42;1.02;;;-0.60;99.90;;;;;;20661962;28;20054;-64
2021/01/06 08:47:53;;;;;;;1.60;1.20;;;-0.40;99.90;;;;;;20670410;28;20045;-63
2021/01/06 08:58:05;;;;;;;0.98;0.68;;;-0.20;99.90;;;;;;20727194;28;20046;-64
2021/01/06 09:08:15;;;;;;;92.72;3.22;;;0.10;99.90;;;;;;20668659;28;20440;-64
2021/01/06 09:18:45;;;;;;;27.80;0.85;;;0.00;99.90;;;;;;20691344;28;20038;-64
2021/01/06 09:28:55;;;;;;;102.25;4.10;;;-0.10;99.90;;;;;;20674237;28;20038;-63
2021/01/06 09:38:58;;;;;;;0.80;0.30;;;-0.10;99.90;;;;;;20672926;28;20211;-63
2021/01/06 09:49:12;;;;;;;2.22;0.30;;;-0.20;99.90;;;;;;20672736;28;20065;-64
2021/01/06 09:59:21;;;;;;;300.00;10.98;;;-0.30;99.90;;;;;;20671713;28;20092;-64
2021/01/06 10:09:40;;;;;;;0.20;0.20;;;-0.40;99.90;;;;;;20669137;28;20046;-64
2021/01/06 10:20:11;;;;;;;269.92;10.27;;;-0.30;99.90;;;;;;20670069;28;20038;-64
2021/01/06 10:30:17;;;;;;;48.03;2.25;;;0.10;99.90;;;;;;20674864;28;20043;-62
2021/01/06 10:40:36;;;;;;;968.83;34.97;;;-0.10;99.90;;;;;;20667567;28;20042;-62
2021/01/06 10:50:45;;;;;;;745.42;25.90;;;-0.50;99.90;;;;;;20682243;28;20080;-63
2021/01/06 11:00:59;;;;;;;930.47;29.60;;;-0.80;99.90;;;;;;20746859;28;20037;-63
2021/01/06 11:11:10;;;;;;;1185.07;38.97;;;-0.70;99.90;;;;;;20747098;28;20045;-63
2021/01/06 11:21:22;;;;;;;529.88;17.70;;;-0.70;99.90;;;;;;20745269;28;20038;-63
2021/01/06 11:31:30;;;;;;;953.40;31.13;;;-0.80;99.90;;;;;;20743758;28;20099;-63
2021/01/06 11:41:32;;;;;;;437.60;13.23;;;-0.90;99.90;;;;;;20744575;28;20046;-63
2021/01/06 11:51:34;;;;;;;304.10;11.50;;;-0.90;99.90;;;;;;20704924;28;20105;-63
2021/01/06 12:01:57;;;;;;;343.73;12.68;;;-0.70;99.90;;;;;;20757264;23;20054;31
2021/01/06 12:12:27;;;;;;;215.85;8.50;;;-0.40;99.90;;;;;;20739404;28;19921;-63
2021/01/06 12:22:30;;;;;;;319.13;12.07;;;-0.20;99.90;;;;;;20743066;28;20476;-62
2021/01/06 12:32:56;;;;;;;375.40;15.88;;;-0.20;99.90;;;;;;20741489;28;20400;-62
2021/01/06 12:43:01;;;;;;;1110.90;36.75;;;-0.20;99.90;;;;;;20734740;28;20048;-62
2021/01/06 12:53:30;;;;;;;504.15;18.52;;;-0.10;99.90;;;;;;20757636;28;20030;-62
2021/01/06 13:03:57;;;;;;;259.85;9.38;;;-0.60;99.90;;;;;;20756063;28;20050;-63
2021/01/06 13:14:35;;;;;;;120.32;5.18;;;-0.70;99.90;;;;;;20756502;28;20088;-62
2021/01/06 13:24:39;;;;;;;65.35;2.80;;;-0.70;99.90;;;;;;20770104;28;20533;-62
2021/01/06 13:34:53;;;;;;;271.05;9.88;;;-0.60;99.90;;;;;;20752577;28;20042;-62
2021/01/06 13:45:45;;;;;;;316.40;10.15;;;-0.70;99.90;;;;;;20754372;28;20523;-62
2021/01/06 13:55:58;;;;;;;439.08;14.95;;;-1.10;99.90;;;;;;20743134;28;20050;-63
2021/01/06 14:06:13;;;;;;;580.95;18.05;;;-1.20;99.90;;;;;;20750772;28;20092;-62
2021/01/06 14:16:19;;;;;;;173.80;5.72;;;-0.70;99.90;;;;;;20750321;28;20092;-62
2021/01/06 14:26:30;;;;;;;88.43;3.67;;;0.00;99.90;;;;;;20750755;28;20050;-62
2021/01/06 14:36:46;;;;;;;72.18;3.72;;;0.20;99.90;;;;;;20750858;28;20038;-61
2021/01/06 14:47:10;;;;;;;117.65;4.85;;;-0.10;99.90;;;;;;20749104;28;20038;-62
2021/01/06 14:57:32;;;;;;;358.40;13.50;;;-0.20;99.90;;;;;;20748227;28;20068;-62
2021/01/06 15:07:57;;;;;;;233.10;7.90;;;-0.60;99.90;;;;;;20746694;28;20466;-62
2021/01/06 15:18:05;;;;;;;295.70;9.02;;;-0.70;99.90;;;;;;20746712;28;20107;-62
2021/01/06 15:28:20;;;;;;;317.00;11.75;;;-0.80;99.90;;;;;;20746411;28;20385;-63
2021/01/06 15:38:25;;;;;;;128.23;4.80;;;-1.20;99.90;;;;;;20745438;28;20069;-62
2021/01/06 15:48:30;;;;;;;99.43;4.60;;;-1.30;99.90;;;;;;20743855;28;20041;-63
2021/01/06 15:58:33;;;;;;;7.57;2.15;;;-1.60;99.90;;;;;;20744245;28;20041;-63
2021/01/06 16:08:39;;;;;;;36.03;3.40;;;-1.90;99.90;;;;;;20741904;28;20115;-63
2021/01/06 16:18:59;;;;;;;175.63;6.65;;;-2.00;99.90;;;;;;20742918;28;20038;-63
2021/01/06 16:29:05;;;;;;;145.93;5.85;;;-2.20;99.90;;;;;;20743321;28;20088;-63
2021/01/06 16:39:19;;;;;;;4.75;2.78;;;-2.30;99.90;;;;;;20742401;28;20088;-62
2021/01/06 16:49:26;;;;;;;8.15;3.97;;;-2.50;99.90;;;;;;20719174;28;20062;-62
2021/01/06 16:59:32;;;;;;;18.63;7.72;;;-3.20;99.90;;;;;;20684676;28;20447;-63
2021/01/06 17:09:35;;;;;;;6.95;2.97;;;-3.50;99.90;;;;;;20737182;28;20049;-63
2021/01/06 17:19:40;;;;;;;3.50;1.90;;;-3.90;99.90;;;;;;20739840;28;20077;-63
2021/01/06 17:29:43;;;;;;;3.40;1.73;;;-4.20;99.90;;;;;;20749876;28;20480;-63
2021/01/06 17:39:46;;;;;;;2.60;1.33;;;-4.00;99.90;;;;;;20754738;28;20099;-62
2021/01/06 17:49:50;;;;;;;2.17;1.33;;;-4.20;99.90;;;;;;20754019;28;20088;-62
2021/01/06 17:59:53;;;;;;;1.10;0.70;;;-4.30;99.90;;;;;;20751758;28;20394;-62
2021/01/06 18:09:56;;;;;;;0.50;0.30;;;-4.50;99.90;;;;;;20752019;28;20108;-62
2021/01/06 18:20:00;;;;;;;0.70;0.30;;;-4.70;99.90;;;;;;20766638;28;20068;-64
2021/01/06 18:30:05;;;;;;;0.38;0.20;;;-4.90;99.90;;;;;;20765850;28;20050;-62
2021/01/06 18:40:20;;;;;;;0.40;0.10;;;-4.90;99.90;;;;;;20750686;28;20038;-61
2021/01/06 18:50:27;;;;;;;0.25;0.10;;;-5.00;99.90;;;;;;20764561;28;20042;-62
2021/01/06 19:00:29;;;;;;;0.30;0.10;;;-4.90;99.90;;;;;;20748223;28;20477;-62
2021/01/06 19:10:33;;;;;;;0.20;0.10;;;-4.90;99.90;;;;;;20747793;28;20045;-61
2021/01/06 19:20:36;;;;;;;0.03;0.00;;;-4.90;99.90;;;;;;20745940;28;20087;-62
2021/01/06 19:30:48;;;;;;;0.30;0.10;;;-4.90;99.90;;;;;;20746918;28;20054;-62
2021/01/06 19:41:00;;;;;;;0.20;0.10;;;-5.00;99.90;;;;;;20745400;28;20038;-61
2021/01/06 19:51:05;;;;;;;0.30;0.17;;;-5.20;99.90;;;;;;20744786;28;20096;-62
2021/01/06 20:01:26;;;;;;;0.20;0.10;;;-5.20;99.90;;;;;;20744223;28;20034;-62
2021/01/06 20:11:31;;;;;;;0.77;0.20;;;-5.50;99.90;;;;;;20743660;28;20455;-61
2021/01/06 20:21:35;;;;;;;0.35;0.10;;;-5.80;99.90;;;;;;20743988;28;20108;-61
2021/01/06 20:31:38;;;;;;;0.10;0.10;;;-5.80;99.90;;;;;;20743081;28;20092;-61
2021/01/06 20:41:41;;;;;;;0.10;0.00;;;-5.50;99.90;;;;;;20724801;28;20073;-62
2021/01/06 20:51:44;;;;;;;0.00;0.00;;;-5.50;99.90;;;;;;20742633;28;20559;-63
2021/01/06 21:01:49;;;;;;;0.17;0.05;;;-5.70;99.90;;;;;;20746848;28;20468;-63
2021/01/06 21:11:53;;;;;;;0.10;0.00;;;-5.90;99.90;;;;;;20755120;28;20601;-62
2021/01/06 21:21:57;;;;;;;0.00;0.00;;;-6.00;99.90;;;;;;20755092;28;20033;-62
2021/01/06 21:32:00;;;;;;;0.10;0.03;;;-6.20;99.90;;;;;;20770990;28;20054;-61
2021/01/06 21:42:13;;;;;;;0.13;0.10;;;-6.50;99.90;;;;;;20754380;28;20096;-61
2021/01/06 21:52:17;;;;;;;0.30;0.10;;;-6.80;99.90;;;;;;20768684;28;20038;-61
2021/01/06 22:02:20;;;;;;;0.30;0.10;;;-6.80;99.90;;;;;;20753436;28;20488;-61
2021/01/06 22:12:22;;;;;;;0.10;0.10;;;-6.90;99.90;;;;;;20751691;28;20050;-61
2021/01/06 22:22:25;;;;;;;0.00;0.00;;;-6.90;99.90;;;;;;20767977;28;20038;-61
2021/01/06 22:32:27;;;;;;;0.17;0.00;;;-6.90;99.90;;;;;;20750509;28;20050;-62
2021/01/06 22:42:30;;;;;;;0.00;0.00;;;-6.90;99.90;;;;;;20749564;28;20107;-62
2021/01/06 22:52:33;;;;;;;0.20;0.00;;;-6.30;99.90;;;;;;20750723;28;20054;-61
2021/01/06 23:02:35;;;;;;;0.00;0.00;;;-6.50;99.90;;;;;;20747838;28;20535;-62
2021/01/06 23:12:37;;;;;;;0.30;0.10;;;-6.80;99.90;;;;;;20747175;28;20034;-61
2021/01/06 23:22:40;;;;;;;0.10;0.00;;;-6.60;99.90;;;;;;20746645;28;20049;-62
2021/01/06 23:32:42;;;;;;;0.10;0.00;;;-6.70;99.90;;;;;;20745870;28;20068;-61
2021/01/06 23:42:45;;;;;;;0.00;0.00;;;-6.80;99.90;;;;;;20745930;28;20053;-62
2021/01/06 23:52:47;;;;;;;0.10;0.03;;;-6.90;99.90;;;;;;20743964;28;20084;-61
